Latest Weather Observations for Blackall

IDQ60801

Issued at 5:35 pm EST Wednesday 22 October 2014 (issued every 30 minutes, with the page automatically refreshed every 10 minutes)

About weather observations | Map of weather stations | Latest weather observations for QLD | Other Formats
Station Details ID: 036034 Name: BLACKALL AIRPORT Lat: -24.43 Lon: 145.43 Height: 281.3 m
Data from the previous 72 hours. | See also: Recent months at Blackall
Date/Time
EST
Temp
°C
App
Temp
°C
Dew
Point
Rel
Hum
%
Delta-T
°C
Wind Press
QNH
hPa
Press
MSL
hPa
Rain
since 9 am
mm
Dir
 
Spd
km/h
Gust
km/h
Spd
kts
Gust
kts
22/05:30pm 32.4 28.1 3.4 16 15.1 ENE 15 19 8 10 1017.3 1015.9 -
22/05:00pm 32.9 28.2 2.9 15 15.5 SSE 17 28 9 15 1017.3 1015.9 -
22/04:30pm 32.9 27.0 1.9 14 15.8 ESE 22 32 12 17 1017.3 1015.9 -
22/04:00pm 32.6 29.1 3.5 16 15.2 ESE 11 19 6 10 1017.5 1016.1 -
22/03:30pm 32.6 28.5 4.4 17 14.9 SSE 15 24 8 13 1017.6 1016.2 -
22/03:00pm 32.7 27.8 5.3 18 14.7 SSE 20 30 11 16 1018.1 1016.6 -
22/02:30pm 32.5 28.7 5.9 19 14.4 ESE 15 26 8 14 1018.6 1017.1 -
22/02:00pm 31.9 29.5 5.4 19 14.2 ESE 7 24 4 13 1019.3 1017.9 -
22/01:30pm 32.0 28.3 4.7 18 14.5 ESE 13 24 7 13 1019.9 1018.5 -
22/01:00pm 30.7 27.2 7.2 23 12.9 ENE 15 22 8 12 1020.5 1019.1 -
22/12:30pm 30.3 26.9 7.5 24 12.5 E 15 24 8 13 1020.9 1019.5 -
22/12:00pm 30.2 27.9 9.1 27 11.9 NE 11 28 6 15 1021.4 1020.0 -
22/11:30am 29.5 25.6 9.6 29 11.3 NNE 20 30 11 16 1022.1 1020.6 0.0
22/11:00am 28.0 25.6 10.2 33 10.1 N 13 19 7 10 1022.8 1021.4 0.0
22/10:30am 27.5 23.9 9.8 33 10.0 NNE 19 30 10 16 1023.1 1021.7 0.0
22/10:00am 26.1 22.3 9.9 36 9.0 NE 20 30 11 16 1023.6 1022.2 0.0
22/09:30am 25.6 21.5 10.2 38 8.7 NE 22 35 12 19 1023.8 1022.4 0.0
22/09:00am 24.2 19.7 10.1 41 7.8 NE 24 33 13 18 1023.9 1022.5 0.0
22/08:30am 23.1 18.6 10.2 44 7.2 NNE 24 33 13 18 1023.9 1022.5 0.0
22/08:00am 22.4 17.6 10.2 46 6.7 NE 26 33 14 18 1023.9 1022.5 0.0
22/07:30am 21.2 16.2 9.4 47 6.4 NNE 26 37 14 20 1023.6 1022.2 0.0
22/07:00am 20.3 16.2 8.6 47 6.2 NNE 20 33 11 18 1023.2 1021.8 0.0
22/06:30am 19.8 15.7 8.5 48 6.0 NNE 20 30 11 16 1022.9 1021.5 0.0
22/06:00am 19.1 15.1 8.4 50 5.6 NE 19 30 10 16 1022.6 1021.2 0.0
22/05:30am 19.1 15.6 8.7 51 5.5 NNE 17 24 9 13 1022.1 1020.6 0.0
22/05:00am 19.6 15.5 8.6 49 5.8 NE 20 32 11 17 1021.8 1020.3 0.0
22/04:30am 19.9 15.8 8.6 48 6.0 NE 20 30 11 16 1021.5 1020.1 0.0
22/04:00am 20.2 16.1 7.9 45 6.4 NE 19 30 10 16 1021.3 1019.9 0.0
22/03:30am 20.2 16.8 7.6 44 6.6 NE 15 20 8 11 1021.2 1019.8 0.0
22/03:00am 19.3 16.4 6.4 43 6.5 NE 11 15 6 8 1021.1 1019.7 0.0
22/02:30am 18.6 15.5 5.5 42 6.5 NE 11 13 6 7 1021.0 1019.6 0.0
22/02:00am 20.1 16.7 5.7 39 7.2 NE 13 17 7 9 1021.0 1019.6 0.0
22/01:30am 18.6 15.9 5.8 43 6.4 E 9 11 5 6 1021.1 1019.7 0.0
22/01:00am 17.8 15.4 5.1 43 6.2 SE 7 9 4 5 1021.2 1019.8 0.0
22/12:30am 18.1 15.2 4.7 41 6.5 ESE 9 11 5 6 1021.4 1020.0 0.0
22/12:00am 18.9 16.5 4.3 38 7.0 SE 6 7 3 4 1021.7 1020.2 0.0
 
Date/Time
EST
Temp
°C
App
Temp
°C
Dew
Point
Rel
Hum
%
Delta-T
°C
Wind Press
QNH
hPa
Press
MSL
hPa
Rain
since 9 am
mm
Dir
 
Spd
km/h
Gust
km/h
Spd
kts
Gust
kts
21/11:30pm 21.0 18.7 4.6 34 8.1 ENE 6 7 3 4 1021.9 1020.4 0.0
21/11:00pm 22.2 19.8 5.2 33 8.5 ENE 7 9 4 5 1022.0 1020.5 0.0
21/10:30pm 22.7 19.6 5.6 33 8.7 ENE 11 13 6 7 1022.3 1020.9 0.0
21/10:00pm 23.7 20.2 5.6 31 9.2 ENE 13 17 7 9 1022.3 1020.9 0.0
21/09:30pm 23.6 20.9 5.5 31 9.2 ENE 9 13 5 7 1022.1 1020.6 0.0
21/09:00pm 24.2 20.6 5.1 29 9.7 NE 13 15 7 8 1022.0 1020.5 0.0
21/08:30pm 24.8 21.6 5.1 28 10.1 NE 11 15 6 8 1021.7 1020.2 0.0
21/08:00pm 25.6 21.9 4.7 26 10.6 NE 13 15 7 8 1021.1 1019.7 0.0
21/07:30pm 26.7 22.8 3.2 22 11.8 NE 13 15 7 8 1020.8 1019.4 0.0
21/07:00pm 28.4 24.1 3.3 20 12.7 ENE 15 19 8 10 1020.5 1019.1 0.0
21/06:30pm 29.5 24.9 3.5 19 13.3 ENE 17 22 9 12 1020.2 1018.8 0.0
21/06:00pm 30.6 25.0 3.6 18 13.9 ENE 22 32 12 17 1019.9 1018.5 0.0
21/05:30pm 31.4 25.4 3.4 17 14.5 E 24 33 13 18 1019.5 1018.1 0.0
21/05:00pm 32.3 26.1 2.4 15 15.3 ENE 24 35 13 19 1019.2 1017.8 0.0
21/04:30pm 32.5 26.0 2.5 15 15.4 E 26 33 14 18 1019.0 1017.5 0.0
21/04:00pm 32.9 26.3 1.9 14 15.7 ENE 26 39 14 21 1019.0 1017.5 0.0
21/03:30pm 33.0 26.2 0.9 13 16.1 E 26 37 14 20 1019.0 1017.5 0.0
21/03:00pm 32.7 28.1 1.7 14 15.7 NE 15 24 8 13 1019.3 1017.9 0.0
21/02:30pm 33.3 26.9 3.2 15 15.7 E 26 41 14 22 1019.7 1018.3 0.0
21/02:00pm 32.6 26.6 3.5 16 15.1 ENE 24 37 13 20 1020.0 1018.6 0.0
21/01:30pm 32.7 26.7 3.6 16 15.2 E 24 35 13 19 1020.5 1019.1 0.0
21/01:00pm 32.0 26.5 3.9 17 14.7 ENE 22 35 12 19 1021.1 1019.7 0.0
21/12:30pm 31.9 26.3 5.4 19 14.2 ESE 24 37 13 20 1021.9 1020.4 0.0
21/12:00pm 29.8 25.1 5.1 21 13.0 SE 19 30 10 16 1022.5 1021.1 0.0
21/11:30am 30.2 26.1 6.1 22 12.9 E 17 28 9 15 1023.2 1021.8 0.0
21/11:00am 29.3 24.9 7.2 25 12.0 NE 20 26 11 14 1023.6 1022.2 0.0
21/10:30am 28.2 23.8 7.4 27 11.3 E 20 28 11 15 1024.0 1022.6 0.0
21/10:00am 27.4 23.0 7.3 28 10.8 NE 20 26 11 14 1024.5 1023.1 0.0
21/09:30am 25.8 20.5 6.9 30 10.0 NE 24 35 13 19 1024.6 1023.2 0.0
21/09:00am 25.5 20.1 8.1 33 9.4 NE 26 33 14 18 1024.5 1023.1 0.0
21/08:30am 24.2 18.3 9.0 38 8.3 NE 30 37 16 20 1024.5 1023.1 0.0
21/08:00am 23.4 18.0 9.4 41 7.6 NE 28 37 15 20 1024.5 1023.1 0.0
21/07:30am 22.5 17.4 9.3 43 7.2 ENE 26 33 14 18 1024.1 1022.7 0.0
21/07:00am 21.3 16.9 8.9 45 6.6 NE 22 32 12 17 1023.7 1022.3 0.0
21/06:30am 19.9 16.9 7.9 46 6.3 ENE 13 17 7 9 1023.0 1021.6 0.0
21/06:00am 18.2 14.9 6.4 46 5.9 ENE 13 17 7 9 1022.5 1021.1 0.0
21/05:30am 18.5 15.1 6.0 44 6.2 ENE 13 17 7 9 1022.0 1020.5 0.0
21/05:00am 18.6 15.0 5.1 41 6.6 ENE 13 17 7 9 1021.5 1020.1 0.0
21/04:30am 18.6 15.0 4.8 40 6.7 ENE 13 15 7 8 1021.1 1019.7 0.0
21/04:00am 18.8 15.2 4.9 40 6.8 ENE 13 15 7 8 1020.8 1019.4 0.0
21/03:30am 18.3 14.8 5.5 43 6.3 ENE 13 15 7 8 1020.6 1019.2 0.0
21/03:00am 16.2 13.7 4.6 46 5.5 ESE 7 9 4 5 1020.5 1019.1 0.0
21/02:30am 17.0 14.4 4.3 43 6.1 ESE 7 7 4 4 1020.4 1019.0 0.0
21/02:00am 17.1 14.5 4.4 43 6.1 SE 7 7 4 4 1020.4 1019.0 0.0
21/01:30am 17.9 15.2 3.8 39 6.7 E 7 9 4 5 1020.7 1019.3 0.0
21/01:00am 18.6 15.8 5.1 41 6.6 ENE 9 11 5 6 1020.9 1019.5 0.0
21/12:30am 18.7 16.2 4.5 39 6.9 ENE 7 9 4 5 1020.9 1019.5 0.0
21/12:00am 18.4 15.8 4.2 39 6.8 SE 7 7 4 4 1021.1 1019.7 0.0
 
Date/Time
EST
Temp
°C
App
Temp
°C
Dew
Point
Rel
Hum
%
Delta-T
°C
Wind Press
QNH
hPa
Press
MSL
hPa
Rain
since 9 am
mm
Dir
 
Spd
km/h
Gust
km/h
Spd
kts
Gust
kts
20/11:30pm 19.0 16.5 3.6 36 7.4 ESE 6 6 3 3 1021.2 1019.8 0.0
20/11:00pm 21.5 19.0 5.0 34 8.2 NE 7 9 4 5 1021.2 1019.8 0.0
20/10:30pm 20.6 18.3 4.6 35 7.9 NE 6 7 3 4 1021.2 1019.8 0.0
20/10:00pm 22.5 20.1 5.4 33 8.6 ENE 7 7 4 4 1021.1 1019.7 0.0
20/09:30pm 22.8 20.4 4.3 30 9.2 NE 6 9 3 5 1021.0 1019.6 0.0
20/09:00pm 24.1 21.6 4.5 28 9.8 NE 7 9 4 5 1020.6 1019.2 0.0
20/08:30pm 24.7 21.9 5.0 28 10.1 NE 9 11 5 6 1020.2 1018.8 0.0
20/08:00pm 26.2 23.4 5.2 26 10.8 NE 9 11 5 6 1020.1 1018.7 0.0
20/07:30pm 25.6 24.2 3.5 24 11.0 CALM 0 6 0 3 1019.7 1018.3 0.0
20/07:00pm 27.5 24.8 3.9 22 12.0 E 7 9 4 5 1019.5 1018.1 0.0
20/06:30pm 29.3 25.5 4.0 20 13.1 E 13 17 7 9 1019.3 1017.9 0.0
20/06:00pm 30.6 25.8 2.8 17 14.1 ENE 17 20 9 11 1019.1 1017.7 0.0
20/05:30pm 31.3 25.8 1.6 15 14.9 ESE 20 30 11 16 1018.9 1017.4 0.0
20/05:00pm 31.7 26.1 1.0 14 15.2 ESE 20 32 11 17 1018.7 1017.2 0.0
20/04:30pm 32.6 27.1 1.7 14 15.6 E 20 28 11 15 1018.4 1016.9 0.0
20/04:00pm 33.1 29.0 2.0 14 15.8 E 13 30 7 16 1018.3 1016.8 0.0
20/03:30pm 33.1 28.0 3.9 16 15.4 E 20 24 11 13 1018.5 1017.0 0.0
20/03:00pm 32.6 27.6 3.5 16 15.2 E 19 35 10 19 1018.6 1017.1 0.0
20/02:30pm 31.9 27.2 3.0 16 14.9 E 17 46 9 25 1019.2 1017.8 0.0
20/02:00pm 31.7 27.9 3.7 17 14.5 E 13 20 7 11 1019.6 1018.2 0.0
20/01:30pm 32.0 26.3 4.7 18 14.5 E 24 39 13 21 1020.2 1018.8 0.0
20/01:00pm 31.1 26.5 5.5 20 13.6 SE 19 33 10 18 1020.7 1019.3 0.0
20/12:30pm 30.5 26.4 6.4 22 13.0 ESE 17 28 9 15 1021.2 1019.8 0.0
20/12:00pm 30.4 25.4 6.3 22 13.0 ENE 22 30 12 16 1022.1 1020.6 0.0
20/11:30am 29.3 25.3 8.4 27 11.6 E 19 24 10 13 1022.6 1021.2 0.0
20/11:00am 28.6 26.0 9.3 30 10.8 ESE 13 24 7 13 1023.1 1021.7 0.0
20/10:30am 27.2 24.2 9.1 32 10.1 E 15 22 8 12 1023.6 1022.2 0.0
20/10:00am 26.0 23.5 9.8 36 9.0 NE 13 19 7 10 1024.3 1022.9 0.0
20/09:30am 25.3 22.7 10.7 40 8.3 NE 15 22 8 12 1024.7 1023.3 0.0
20/09:00am 23.8 21.3 11.2 45 7.1 NNE 15 22 8 12 1024.8 1023.4 -
20/08:30am 23.2 20.0 11.3 47 6.7 NNE 19 24 10 13 1024.9 1023.5 -
20/08:00am 21.9 18.6 11.0 50 6.1 NE 19 24 10 13 1024.8 1023.4 -
20/07:30am 20.8 17.8 10.6 52 5.6 NNE 17 20 9 11 1024.6 1023.2 -
20/07:00am 19.9 17.5 10.0 53 5.4 NE 13 17 7 9 1024.3 1022.9 -
20/06:30am 18.6 16.9 9.7 56 4.8 ENE 9 13 5 7 1024.0 - 0.0
20/06:00am 16.0 13.9 8.2 60 4.0 ENE 9 9 5 5 1023.5 - 0.0
20/05:30am 15.7 13.7 7.0 56 4.3 E 7 7 4 4 1023.1 - 0.0
20/05:00am 16.9 15.2 7.5 54 4.8 ENE 6 7 3 4 1022.6 1021.2 -
20/04:30am 17.4 15.0 7.2 51 5.2 ENE 9 13 5 7 1022.0 1020.5 -
20/04:00am 18.1 15.0 7.2 49 5.5 ENE 13 17 7 9 1021.7 1020.2 -
20/03:30am 18.7 15.1 6.9 46 6.0 ENE 15 19 8 10 1021.3 1019.9 -
20/03:00am 18.4 14.7 6.3 45 6.1 ENE 15 19 8 10 1021.2 1019.8 -
20/02:30am 18.6 15.3 6.4 45 6.1 ENE 13 15 7 8 1021.1 1019.7 -
20/02:00am 18.5 16.0 6.4 45 6.1 E 9 11 5 6 1021.4 1020.0 -
20/01:30am 19.1 16.5 6.2 43 6.5 ENE 9 11 5 6 1021.9 1020.4 -
20/01:00am 19.3 16.7 6.1 42 6.6 NE 9 11 5 6 1022.2 1020.7 -
20/12:30am 19.8 16.8 5.8 40 7.0 NE 11 13 6 7 1022.6 1021.2 -
20/12:00am 19.9 17.7 5.5 39 7.2 ENE 6 7 3 4 1022.9 1021.5 -
 
Date/Time
EST
Temp
°C
App
Temp
°C
Dew
Point
Rel
Hum
%
Delta-T
°C
Wind Press
QNH
hPa
Press
MSL
hPa
Rain
since 9 am
mm
Dir
 
Spd
km/h
Gust
km/h
Spd
kts
Gust
kts
19/11:30pm 21.2 18.6 6.3 38 7.6 ENE 9 9 5 5 1023.2 1021.8 -
19/11:00pm 21.8 19.2 6.1 36 8.0 NE 9 13 5 7 1023.1 1021.7 -
19/10:30pm 22.1 19.1 5.9 35 8.3 ENE 11 13 6 7 1022.8 1021.4 -
19/09:30pm 23.0 19.9 5.4 32 9.0 NE 11 13 6 7 1022.2 1020.7 0.0
19/09:00pm 23.7 20.2 5.6 31 9.2 ENE 13 15 7 8 1021.8 1020.3 0.0
19/08:30pm 24.3 20.6 4.6 28 10.0 ENE 13 17 7 9 1021.4 1020.0 0.0
19/08:00pm 25.8 22.2 4.9 26 10.7 ENE 13 17 7 9 1021.3 1019.9 0.0
19/07:30pm 26.2 22.5 4.6 25 11.0 E 13 17 7 9 1021.1 1019.7 0.0
19/07:00pm 27.5 23.4 4.5 23 11.8 E 15 19 8 10 1020.9 1019.5 0.0
19/06:30pm 28.6 24.0 3.5 20 12.8 ESE 17 22 9 12 1020.4 1019.0 0.0
19/06:00pm 29.6 25.0 3.5 19 13.3 E 17 28 9 15 1019.9 1018.5 0.0

Other Formats:

Comma delimited format used in spreadsheet applications
http://www.bom.gov.au/fwo/IDQ60801/IDQ60801.95351.axf

JavaScript Object Notation format (JSON) in row-major order
http://www.bom.gov.au/fwo/IDQ60801/IDQ60801.95351.json